Flight Track Log - Related Links

Times and Time Zones

All times are in EST time to prevent confusion due to time zone crossing. See the N449ND flight status page for this flight to view local times or setup timezone preferences in your user account.

Time Position Orientation Groundspeed Altitude Reporting Facility
EST Latitude Longitude Course Direction KTS MPH feet Rate Location/Type
Mon 10:15:00 PM 27.3411 -80.5285 230° Southwest  Level FlightAware Approximate
Mon 10:16:00 PM 27.3192 -80.5577 230° Southwest  Level FlightAware Approximate
Mon 10:17:00 PM 27.2958 -80.5840 188° South  Level FlightAware Approximate
Mon 10:18:00 PM 27.2622 -80.5896 188° South  Level FlightAware Approximate
Mon 10:19:00 PM 27.2286 -80.5952 188° South  Level FlightAware Approximate
Mon 10:20:00 PM 27.1951 -80.6008 188° South  Level FlightAware Approximate
Mon 10:20:06 PM 27.5003 -80.3569 190° South 100 115 300  Level Miami Center
Mon 10:21:00 PM 27.1615 -80.6064 188° South  Level FlightAware Approximate
Mon 10:21:06 PM 27.4967 -80.3311 99° East 93 107 6,000  Level Miami Center
Mon 10:22:00 PM 27.1279 -80.6120 188° South  Level FlightAware Approximate
Mon 10:22:06 PM 27.4931 -80.3100 101° East 84 97 1,500  Level Miami Center
Mon 10:23:00 PM 27.0943 -80.6178 190° South  Level FlightAware Approximate
Mon 10:23:07 PM 27.4917 -80.2842 93° East 84 97 2,000  Level Miami Center
Mon 10:24:00 PM 27.0609 -80.6245 190° South  Level FlightAware Approximate
Mon 10:24:06 PM 27.4922 -80.2586 89° East 84 97 2,500  Level Miami Center
Mon 10:25:00 PM 27.0274 -80.6312 190° South  Level FlightAware Approximate
Mon 10:25:07 PM 27.4733 -80.2650 197° South 57 66 3,000  Level Miami Center
Mon 10:26:07 PM 27.4603 -80.2833 231° Southwest 78 90 3,400 397 Climbing Miami Center
Mon 10:27:08 PM 27.4392 -80.2967 209° Southwest 93 107 3,800 403 Climbing Miami Center
Mon 10:28:06 PM 27.4181 -80.3100 209° Southwest 88 101 4,200 403 Climbing Miami Center
Mon 10:29:07 PM 27.3967 -80.3211 205° Southwest 88 101 4,600 400 Climbing Miami Center
Mon 10:30:06 PM 27.3756 -80.3322 205° Southwest 88 101 5,000 397 Climbing Miami Center
Mon 10:31:08 PM 27.3586 -80.3433 210° Southwest 88 101 5,400 300 Climbing Miami Center
Mon 10:32:06 PM 27.3375 -80.3567 209° Southwest 88 101 5,600 305 Climbing Miami Center
Mon 10:33:06 PM 27.3142 -80.3725 211° Southwest 88 101 6,000 197 Climbing Miami Center
Mon 10:34:08 PM 27.2908 -80.3833 202° Southwest 93 107 6,000  Level Miami Center
Mon 10:35:06 PM 27.2600 -80.3708 160° South 105 121 6,000  Level Miami Center
Mon 10:36:06 PM 27.2331 -80.3606 161° South 110 127 6,000  Level Miami Center
Mon 10:37:06 PM 27.2019 -80.3503 164° South 115 132 6,000  Level Miami Center
Mon 10:38:06 PM 27.1667 -80.3375 162° South 120 138 6,000  Level Miami Center
Mon 10:39:07 PM 27.1378 -80.3275 163° South 120 138 6,000 -198 Level Miami Center
Mon 10:40:07 PM 27.1067 -80.3172 164° South 120 138 5,600 -403 Descending Miami Center
Mon 10:41:06 PM 27.0775 -80.3164 179° South 120 138 5,200 -446 Descending Miami Center
Mon 10:42:08 PM 27.0400 -80.3153 178° South 120 138 4,700 -484 Descending Miami Center
Mon 10:44:00 PM 26.9918 -80.2855 151° Southeast  Level Estimated
Mon 10:51:00 PM 26.8110 -80.1741 151° Southeast  Level Estimated
Mon 10:52:00 PM 26.7852 -80.1582 151° Southeast  Level Estimated
Mon 10:53:00 PM 26.7594 -80.1424 151° Southeast  Level Estimated
Mon 10:54:00 PM 26.7335 -80.1265 151° Southeast  Level Estimated
Mon 10:55:00 PM 26.7077 -80.1106 151° Southeast  Level Estimated
Mon 10:56:00 PM 26.6832 -80.0956 151° Southeast  Level Estimated
Mon 10:57:00 PM 26.6832 -80.0956 222° Southwest  Level Estimated
Mon 10:58:00 PM 26.6832 -80.0956 222° Southwest  Level Estimated
Mon 10:59:00 PM 26.6832 -80.0956 222° Southwest  Level Estimated
Mon 11:00:00 PM 26.6832 -80.0956 222° Southwest  Level Estimated
Mon 11:01:00 PM 26.6832 -80.0956 222° Southwest  Level Estimated
Mon 11:02:00 PM 26.6832 -80.0956 222° Southwest  Level Estimated
Mon 11:03:00 PM 26.6832 -80.0956 222° Southwest  Level Estimated
Mon 11:04:00 PM 26.6832 -80.0956 222° Southwest  Level Estimated
Mon 11:05:00 PM 26.6832 -80.0956 222° Southwest  Level Estimated
Mon 11:06:00 PM 26.6832 -80.0956 222° Southwest  Level Estimated
Mon 11:07:00 PM 26.6832 -80.0956 222° Southwest  Level Estimated
Mon 11:08:00 PM 26.6832 -80.0956 222° Southwest  Level Estimated

Login

Don't have an account? Register now (free) for customized features, flight alerts, and more!